createdAt,value
2023-01-21T00:00:06.626Z,120.53
2023-01-21T00:05:11.791Z,85.75
2023-01-21T00:10:19.148Z,108.63
2023-01-21T00:15:23.881Z,78.45
2023-01-21T00:20:28.651Z,93.13
2023-01-21T00:25:35.883Z,78.45
2023-01-21T00:30:41.953Z,152.32
2023-01-21T00:35:46.648Z,99.40
2023-01-21T00:40:53.894Z,152.32
2023-01-21T00:45:58.556Z,120.78
2023-01-21T00:51:03.544Z,110.60
2023-01-21T00:56:12.111Z,190.23
2023-01-21T01:01:18.601Z,108.03
2023-01-21T01:06:24.078Z,70.70
2023-01-21T01:11:31.802Z,99.18
2023-01-21T01:16:36.477Z,101.53
2023-01-21T01:21:41.149Z,132.23
2023-01-21T01:26:48.560Z,89.03
2023-01-21T01:31:53.248Z,97.75
2023-01-21T01:36:58.042Z,79.75
2023-01-21T01:42:05.590Z,68.32
2023-01-21T01:47:10.319Z,129.93
2023-01-21T01:52:15.426Z,152.27
2023-01-21T01:57:24.358Z,100.15
2023-01-21T02:02:29.111Z,107.85
2023-01-21T02:07:39.459Z,106.90
2023-01-21T02:17:54.569Z,46.13
2023-01-21T02:23:02.249Z,128.75
2023-01-21T02:28:13.585Z,138.02
2023-01-21T02:33:42.261Z,66.72
2023-01-21T02:38:55.545Z,57.55
2023-01-21T02:44:04.785Z,62.22
2023-01-21T02:49:12.877Z,54.47
2023-01-21T02:54:32.259Z,36.83
2023-01-21T02:59:40.154Z,100.30
2023-01-21T03:04:53.337Z,70.57
2023-01-21T03:10:01.173Z,34.45
2023-01-21T03:15:22.470Z,34.75
2023-01-21T03:20:32.093Z,36.10
2023-01-21T03:25:37.896Z,36.90
2023-01-21T03:30:49.508Z,32.88
2023-01-21T03:35:56.939Z,34.38
2023-01-21T03:41:04.407Z,30.63
2023-01-21T03:46:12.897Z,33.90
2023-01-21T03:51:20.681Z,34.53
2023-01-21T03:56:25.752Z,36.83
2023-01-21T04:01:33.054Z,32.20
2023-01-21T04:06:38.048Z,31.13
2023-01-21T04:11:42.747Z,33.08
2023-01-21T04:16:50.088Z,32.63
2023-01-21T04:21:54.855Z,34.85
2023-01-21T04:26:59.563Z,27.08
2023-01-21T04:32:07.099Z,30.90
2023-01-21T04:37:11.738Z,24.73
2023-01-21T04:42:16.500Z,30.73
2023-01-21T04:47:23.774Z,28.95
2023-01-21T04:52:28.466Z,44.95
2023-01-21T04:57:35.295Z,35.33
2023-01-21T05:02:42.707Z,31.58
2023-01-21T05:07:47.616Z,29.88
2023-01-21T05:12:54.694Z,35.67
2023-01-21T05:18:02.090Z,28.20
2023-01-21T05:23:06.925Z,32.45
2023-01-21T05:28:11.607Z,30.02
2023-01-21T05:33:18.874Z,28.77
2023-01-21T05:38:23.661Z,28.05
2023-01-21T05:43:28.937Z,30.88
2023-01-21T05:48:36.963Z,29.95
2023-01-21T05:53:42.161Z,25.80
2023-01-21T05:58:47.151Z,35.58
2023-01-21T06:03:54.547Z,39.53
2023-01-21T06:08:59.358Z,33.65
2023-01-21T06:14:05.230Z,34.03
2023-01-21T06:19:13.538Z,35.67
2023-01-21T06:24:18.290Z,36.60
2023-01-21T06:29:22.967Z,35.10
2023-01-21T06:34:30.305Z,28.98
2023-01-21T06:39:35.112Z,33.35
2023-01-21T06:44:43.100Z,34.47
2023-01-21T06:49:50.401Z,34.90
2023-01-21T06:54:55.039Z,29.98
2023-01-21T07:00:02.839Z,34.67
2023-01-21T07:05:10.607Z,35.40
2023-01-21T07:10:15.627Z,33.33
2023-01-21T07:15:20.682Z,30.85
2023-01-21T07:20:28.060Z,33.13
2023-01-21T07:25:32.725Z,32.30
2023-01-21T07:30:37.406Z,36.22
2023-01-21T07:35:44.683Z,39.58
2023-01-21T07:40:50.709Z,33.80
2023-01-21T07:45:59.961Z,35.40
2023-01-21T07:51:07.532Z,35.95
2023-01-21T07:56:12.697Z,35.80
2023-01-21T08:01:17.500Z,40.08
2023-01-21T08:06:24.926Z,42.75
2023-01-21T08:11:29.610Z,39.45
2023-01-21T08:16:34.381Z,40.17
2023-01-21T08:21:43.645Z,39.35
2023-01-21T08:26:49.435Z,39.42
2023-01-21T08:31:54.397Z,43.65
2023-01-21T08:37:01.759Z,36.55
2023-01-21T08:42:06.765Z,54.58
2023-01-21T08:47:13.482Z,43.53
2023-01-21T08:52:21.801Z,36.50
2023-01-21T08:57:26.463Z,40.00
2023-01-21T09:02:31.443Z,33.80
2023-01-21T09:07:38.815Z,34.40
2023-01-21T09:12:43.652Z,54.35
2023-01-21T09:17:48.406Z,47.72
2023-01-21T09:22:55.787Z,57.38
2023-01-21T09:28:00.524Z,39.47
2023-01-21T09:33:05.242Z,59.50
2023-01-21T09:38:13.033Z,51.85
2023-01-21T09:43:21.410Z,45.33
2023-01-21T09:48:29.714Z,52.28
2023-01-21T09:53:39.891Z,66.68
2023-01-21T09:58:49.556Z,45.17
2023-01-21T10:03:58.464Z,42.17
2023-01-21T10:09:18.706Z,38.65
2023-01-21T10:14:27.973Z,48.40
2023-01-21T10:19:35.834Z,42.38
2023-01-21T10:24:46.384Z,51.33
2023-01-21T10:29:53.296Z,44.83
2023-01-21T10:34:58.990Z,72.55
2023-01-21T10:40:12.737Z,51.90
2023-01-21T10:45:24.183Z,59.88
2023-01-21T10:50:32.229Z,157.30
2023-01-21T10:55:43.833Z,61.83
2023-01-21T11:00:50.297Z,55.03
2023-01-21T11:05:55.122Z,82.25
2023-01-21T11:11:02.768Z,50.15
2023-01-21T11:16:08.070Z,55.78
2023-01-21T11:21:29.035Z,76.45
2023-01-21T11:26:40.283Z,62.15
2023-01-21T11:31:46.866Z,61.85
2023-01-21T11:37:01.782Z,68.00
2023-01-21T11:42:10.714Z,72.50
2023-01-21T11:47:31.109Z,85.78
2023-01-21T11:52:36.903Z,85.90
2023-01-21T11:57:47.237Z,69.55
2023-01-21T12:02:56.071Z,98.53
2023-01-21T12:08:01.350Z,72.60
2023-01-21T12:13:21.153Z,60.75
2023-01-21T12:18:32.807Z,67.27
2023-01-21T12:23:53.007Z,146.23
2023-01-21T12:29:02.482Z,71.40
2023-01-21T12:34:13.798Z,78.93
2023-01-21T12:39:21.463Z,122.00
2023-01-21T12:44:30.629Z,88.85
2023-01-21T12:49:49.945Z,68.10
2023-01-21T12:54:57.146Z,78.72
2023-01-21T13:00:05.757Z,87.55
2023-01-21T13:05:16.186Z,71.72
2023-01-21T13:10:23.006Z,81.50
2023-01-21T13:15:30.758Z,116.85
2023-01-21T13:20:40.522Z,63.17
2023-01-21T13:25:48.588Z,58.72
2023-01-21T13:30:55.556Z,39.88
2023-01-21T13:36:09.330Z,40.95
2023-01-21T13:41:20.375Z,78.32
2023-01-21T13:46:42.963Z,55.20
2023-01-21T13:51:54.090Z,34.45
2023-01-21T13:57:06.675Z,47.47
2023-01-21T14:02:14.773Z,36.25
2023-01-21T14:07:27.205Z,46.92
2023-01-21T14:12:37.789Z,43.13
2023-01-21T14:17:58.234Z,52.55
2023-01-21T14:23:12.549Z,40.95
2023-01-21T14:28:22.265Z,47.90
2023-01-21T14:33:31.288Z,32.28
2023-01-21T14:38:43.682Z,32.38
2023-01-21T14:43:53.017Z,35.67
2023-01-21T14:49:06.517Z,52.85
2023-01-21T14:54:17.142Z,31.73
2023-01-21T14:59:30.506Z,28.48
2023-01-21T15:04:37.594Z,25.75
2023-01-21T15:09:54.070Z,24.10
2023-01-21T15:15:00.443Z,27.23
2023-01-21T15:20:19.878Z,31.73
2023-01-21T15:25:31.762Z,30.23
2023-01-21T15:30:54.222Z,43.42
2023-01-21T15:36:03.407Z,52.35
2023-01-21T15:41:16.299Z,28.38
2023-01-21T15:46:25.928Z,25.23
2023-01-21T15:51:36.039Z,31.80
2023-01-21T15:56:52.166Z,21.95
2023-01-21T16:02:10.572Z,25.05
2023-01-21T16:07:21.819Z,19.35
2023-01-21T16:12:32.833Z,18.85
2023-01-21T16:17:45.995Z,17.92
2023-01-21T16:22:52.739Z,19.70
2023-01-21T16:28:00.130Z,33.80
2023-01-21T16:33:14.835Z,28.27
2023-01-21T16:38:21.462Z,29.30
2023-01-21T16:43:30.472Z,35.25
2023-01-21T16:48:36.651Z,29.85
2023-01-21T16:53:41.370Z,39.50
2023-01-21T16:58:51.794Z,20.23
2023-01-21T17:09:05.212Z,21.17
2023-01-21T17:14:13.334Z,21.92
2023-01-21T17:19:22.928Z,18.38
2023-01-21T17:24:29.726Z,21.53
2023-01-21T17:29:37.325Z,22.23
2023-01-21T17:34:42.066Z,24.42
2023-01-21T17:40:01.245Z,32.97
2023-01-21T17:45:09.228Z,25.38
2023-01-21T17:50:19.797Z,23.50
2023-01-21T17:55:34.530Z,30.17
2023-01-21T18:00:46.735Z,24.60
2023-01-21T18:05:52.157Z,31.25
2023-01-21T18:10:56.829Z,26.10
2023-01-21T18:16:04.299Z,40.03
2023-01-21T18:21:09.266Z,24.50
2023-01-21T18:26:18.405Z,27.60
2023-01-21T18:31:25.790Z,45.03
2023-01-21T18:36:30.577Z,42.67
2023-01-21T18:41:35.221Z,33.25
2023-01-21T18:46:43.586Z,46.30
2023-01-21T18:51:48.716Z,25.63
2023-01-21T18:56:53.575Z,35.65
2023-01-21T19:02:00.893Z,22.73
2023-01-21T19:07:05.635Z,40.92
2023-01-21T19:12:12.270Z,53.00
2023-01-21T19:17:22.089Z,84.82
2023-01-21T19:22:26.899Z,188.48
2023-01-21T19:27:33.289Z,162.05
2023-01-21T19:32:43.586Z,52.65
2023-01-21T19:42:54.263Z,20.20
2023-01-21T19:48:01.694Z,18.92
2023-01-21T19:53:11.968Z,20.65
2023-01-21T20:03:26.033Z,20.50
2023-01-21T20:08:31.796Z,19.35
2023-01-21T20:13:37.157Z,23.23
2023-01-21T20:18:46.419Z,19.42
2023-01-21T20:23:51.035Z,23.85
2023-01-21T20:28:55.675Z,18.80
2023-01-21T20:34:02.977Z,20.15
2023-01-21T20:39:07.667Z,18.65
2023-01-21T20:44:12.382Z,17.25
2023-01-21T20:49:19.708Z,21.52
2023-01-21T20:54:25.005Z,19.25
2023-01-21T20:59:29.762Z,17.92
2023-01-21T21:04:37.229Z,20.38
2023-01-21T21:09:42.025Z,31.55
2023-01-21T21:14:47.466Z,21.45
2023-01-21T21:19:54.997Z,18.92
2023-01-21T21:24:59.977Z,35.05
2023-01-21T21:30:04.752Z,21.20
2023-01-21T21:35:19.403Z,22.85
2023-01-21T21:40:25.877Z,20.80
2023-01-21T21:45:30.756Z,21.60
2023-01-21T21:50:38.793Z,21.33
2023-01-21T21:55:43.597Z,19.33
2023-01-21T22:00:52.900Z,16.83
2023-01-21T22:06:04.003Z,20.50
2023-01-21T22:11:09.390Z,19.95
2023-01-21T22:16:15.142Z,18.92
2023-01-21T22:21:23.488Z,18.27
2023-01-21T22:26:29.227Z,18.35
2023-01-21T22:31:34.973Z,16.48
2023-01-21T22:36:44.365Z,20.25
2023-01-21T22:41:49.055Z,16.60
2023-01-21T22:46:53.758Z,17.73
2023-01-21T22:52:03.933Z,20.02
2023-01-21T22:57:08.759Z,15.07
2023-01-21T23:02:13.544Z,17.67
2023-01-21T23:07:21.190Z,17.00
2023-01-21T23:12:28.833Z,18.15
2023-01-21T23:17:33.918Z,14.77
2023-01-21T23:22:41.351Z,14.80
2023-01-21T23:27:46.396Z,12.18
2023-01-21T23:32:51.160Z,14.93
2023-01-21T23:37:58.730Z,15.48
2023-01-21T23:43:03.443Z,12.98
2023-01-21T23:48:11.190Z,15.48
2023-01-21T23:53:18.701Z,14.73
2023-01-21T23:58:23.378Z,13.82
